sensor_id;sensor_type;location;lat;lon;timestamp;pressure;altitude;pressure_sealevel;temperature;humidity
60055;BME280;45930;53.514;55.904;2023-05-12T00:00:01;49116.13;;;-149.77;42.83
60055;BME280;45930;53.514;55.904;2023-05-12T00:01:03;49096.31;;;-149.77;43.68
60055;BME280;45930;53.514;55.904;2023-05-12T00:02:04;49114.16;;;-149.77;43.85
60055;BME280;45930;53.514;55.904;2023-05-12T00:03:05;49090.38;;;-149.77;44.28
60055;BME280;45930;53.514;55.904;2023-05-12T00:04:06;49108.19;;;-149.77;44.59
60055;BME280;45930;53.514;55.904;2023-05-12T00:05:07;49080.47;;;-149.77;44.52
60055;BME280;45930;53.514;55.904;2023-05-12T00:06:08;49131.97;;;-149.77;44.93
60055;BME280;45930;53.514;55.904;2023-05-12T00:07:09;49112.16;;;-149.77;45.47
60055;BME280;45930;53.514;55.904;2023-05-12T00:08:10;49088.41;;;-149.77;46.08
60055;BME280;45930;53.514;55.904;2023-05-12T00:09:10;49086.41;;;-149.77;47.11
60055;BME280;45930;53.514;55.904;2023-05-12T00:10:11;49088.41;;;-149.77;48.01
60055;BME280;45930;53.514;55.904;2023-05-12T00:11:12;49068.59;;;-149.77;47.86
60055;BME280;45930;53.514;55.904;2023-05-12T00:12:13;49044.81;;;-149.77;48.19
60055;BME280;45930;53.514;55.904;2023-05-12T00:13:14;49092.34;;;-149.77;47.46
60055;BME280;45930;53.514;55.904;2023-05-12T00:14:15;49076.50;;;-149.77;47.34
60055;BME280;45930;53.514;55.904;2023-05-12T00:15:15;49088.41;;;-149.77;47.56
60055;BME280;45930;53.514;55.904;2023-05-12T00:16:18;49068.59;;;-149.77;48.55
60055;BME280;45930;53.514;55.904;2023-05-12T00:17:19;49078.50;;;-149.77;48.64
60055;BME280;45930;53.514;55.904;2023-05-12T00:18:20;49068.59;;;-149.77;48.05
60055;BME280;45930;53.514;55.904;2023-05-12T00:19:20;49062.66;;;-149.77;48.97
60055;BME280;45930;53.514;55.904;2023-05-12T00:20:21;49038.88;;;-149.77;49.79
60055;BME280;45930;53.514;55.904;2023-05-12T00:21:22;49062.66;;;-149.77;50.91
60055;BME280;45930;53.514;55.904;2023-05-12T00:22:23;49040.84;;;-149.77;51.87
60055;BME280;45930;53.514;55.904;2023-05-12T00:23:23;49025.00;;;-149.77;52.69
60055;BME280;45930;53.514;55.904;2023-05-12T00:24:24;49025.00;;;-149.77;54.05
60055;BME280;45930;53.514;55.904;2023-05-12T00:25:25;48997.28;;;-149.77;55.08
60055;BME280;45930;53.514;55.904;2023-05-12T00:26:26;49009.16;;;-149.77;56.71
60055;BME280;45930;53.514;55.904;2023-05-12T00:27:27;48987.38;;;-149.77;58.06
60055;BME280;45930;53.514;55.904;2023-05-12T00:28:30;48955.69;;;-149.77;59.63
60055;BME280;45930;53.514;55.904;2023-05-12T00:29:32;48957.66;;;-149.77;61.13
60055;BME280;45930;53.514;55.904;2023-05-12T00:30:33;48941.81;;;-149.77;61.83
60055;BME280;45930;53.514;55.904;2023-05-12T00:31:33;48941.81;;;-149.77;62.12
60055;BME280;45930;53.514;55.904;2023-05-12T00:32:34;48922.03;;;-149.77;63.19
60055;BME280;45930;53.514;55.904;2023-05-12T00:33:35;48900.22;;;-149.77;64.37
60055;BME280;45930;53.514;55.904;2023-05-12T00:34:35;48898.25;;;-149.77;64.75
60055;BME280;45930;53.514;55.904;2023-05-12T00:35:36;48900.22;;;-149.77;65.30
60055;BME280;45930;53.514;55.904;2023-05-12T00:36:37;48890.31;;;-149.77;65.78
60055;BME280;45930;53.514;55.904;2023-05-12T00:37:38;48874.47;;;-149.77;66.60
60055;BME280;45930;53.514;55.904;2023-05-12T00:38:39;48868.53;;;-149.77;66.75
60055;BME280;45930;53.514;55.904;2023-05-12T00:39:40;48858.63;;;-149.77;66.67
60055;BME280;45930;53.514;55.904;2023-05-12T00:40:41;48856.66;;;-149.77;67.33
60055;BME280;45930;53.514;55.904;2023-05-12T00:41:42;48821.00;;;-149.77;68.12
60055;BME280;45930;53.514;55.904;2023-05-12T00:42:43;48840.81;;;-149.77;69.32
60055;BME280;45930;53.514;55.904;2023-05-12T00:43:44;48781.41;;;-149.77;69.79
60055;BME280;45930;53.514;55.904;2023-05-12T00:44:45;48815.06;;;-149.77;70.42
60055;BME280;45930;53.514;55.904;2023-05-12T00:45:47;48783.38;;;-149.77;70.66
60055;BME280;45930;53.514;55.904;2023-05-12T00:46:48;48757.63;;;-149.77;70.69
60055;BME280;45930;53.514;55.904;2023-05-12T00:47:50;48737.81;;;-149.77;70.57
60055;BME280;45930;53.514;55.904;2023-05-12T00:48:51;48747.72;;;-149.77;70.59
60055;BME280;45930;53.514;55.904;2023-05-12T00:49:52;48743.75;;;-149.77;71.74
60055;BME280;45930;53.514;55.904;2023-05-12T00:50:55;48743.75;;;-149.77;72.07
60055;BME280;45930;53.514;55.904;2023-05-12T00:51:57;48745.75;;;-149.77;71.88
60055;BME280;45930;53.514;55.904;2023-05-12T00:53:00;48759.59;;;-149.77;71.83
60055;BME280;45930;53.514;55.904;2023-05-12T00:54:01;48720.00;;;-149.77;71.76
60055;BME280;45930;53.514;55.904;2023-05-12T00:55:02;48743.75;;;-149.77;72.00
60055;BME280;45930;53.514;55.904;2023-05-12T00:56:04;48712.06;;;-149.77;73.35
60055;BME280;45930;53.514;55.904;2023-05-12T00:57:05;48708.13;;;-149.77;74.05
60055;BME280;45930;53.514;55.904;2023-05-12T00:58:07;48690.28;;;-149.77;74.48
60055;BME280;45930;53.514;55.904;2023-05-12T00:59:07;48688.31;;;-149.77;75.52
60055;BME280;45930;53.514;55.904;2023-05-12T01:00:08;48672.47;;;-149.77;76.60
60055;BME280;45930;53.514;55.904;2023-05-12T01:01:10;48682.38;;;-149.77;77.33
60055;BME280;45930;53.514;55.904;2023-05-12T01:02:11;48640.78;;;-149.77;77.35
60055;BME280;45930;53.514;55.904;2023-05-12T01:03:12;48636.81;;;-149.77;77.84
60055;BME280;45930;53.514;55.904;2023-05-12T01:04:12;48636.81;;;-149.77;77.91
60055;BME280;45930;53.514;55.904;2023-05-12T01:05:13;48628.91;;;-149.77;78.30
60055;BME280;45930;53.514;55.904;2023-05-12T01:06:19;48603.16;;;-149.77;79.40
60055;BME280;45930;53.514;55.904;2023-05-12T01:07:22;48619.00;;;-149.77;80.12
60055;BME280;45930;53.514;55.904;2023-05-12T01:08:24;48620.97;;;-149.77;80.46
60055;BME280;45930;53.514;55.904;2023-05-12T01:09:26;48565.53;;;-149.77;80.57
60055;BME280;45930;53.514;55.904;2023-05-12T01:10:26;48577.41;;;-149.77;80.77
60055;BME280;45930;53.514;55.904;2023-05-12T01:11:27;48593.25;;;-149.77;80.67
60055;BME280;45930;53.514;55.904;2023-05-12T01:12:28;48585.31;;;-149.77;80.87
60055;BME280;45930;53.514;55.904;2023-05-12T01:13:31;48583.34;;;-149.77;80.83
60055;BME280;45930;53.514;55.904;2023-05-12T01:14:32;48563.53;;;-149.77;80.79
60055;BME280;45930;53.514;55.904;2023-05-12T01:15:34;48589.28;;;-149.77;81.39
60055;BME280;45930;53.514;55.904;2023-05-12T01:16:43;48581.38;;;-149.77;81.34
60055;BME280;45930;53.514;55.904;2023-05-12T01:17:56;48555.63;;;-149.77;81.23
60055;BME280;45930;53.514;55.904;2023-05-12T01:19:04;48585.31;;;-149.77;81.20
60055;BME280;45930;53.514;55.904;2023-05-12T01:20:07;48553.63;;;-149.77;80.99
60055;BME280;45930;53.514;55.904;2023-05-12T01:21:09;48599.19;;;-149.77;82.04
60055;BME280;45930;53.514;55.904;2023-05-12T01:22:11;48551.66;;;-149.77;82.74
60055;BME280;45930;53.514;55.904;2023-05-12T01:23:12;48567.50;;;-149.77;82.65
60055;BME280;45930;53.514;55.904;2023-05-12T01:24:18;48531.84;;;-149.77;82.29
60055;BME280;45930;53.514;55.904;2023-05-12T01:25:24;48537.78;;;-149.77;83.06
60055;BME280;45930;53.514;55.904;2023-05-12T01:26:26;48573.44;;;-149.77;84.26
60055;BME280;45930;53.514;55.904;2023-05-12T01:27:30;48553.63;;;-149.77;84.43
60055;BME280;45930;53.514;55.904;2023-05-12T01:28:32;48553.63;;;-149.77;84.11
60055;BME280;45930;53.514;55.904;2023-05-12T01:29:34;48555.63;;;-149.77;83.98
60055;BME280;45930;53.514;55.904;2023-05-12T01:30:35;48565.53;;;-149.77;84.58
60055;BME280;45930;53.514;55.904;2023-05-12T01:31:38;48531.84;;;-149.77;84.26
60055;BME280;45930;53.514;55.904;2023-05-12T01:32:39;48527.91;;;-149.77;84.41
60055;BME280;45930;53.514;55.904;2023-05-12T01:33:41;48549.69;;;-149.77;85.22
60055;BME280;45930;53.514;55.904;2023-05-12T01:34:42;48557.59;;;-149.77;85.61
60055;BME280;45930;53.514;55.904;2023-05-12T01:35:43;48533.84;;;-149.77;85.80
60055;BME280;45930;53.514;55.904;2023-05-12T01:36:43;48559.59;;;-149.77;86.20
60055;BME280;45930;53.514;55.904;2023-05-12T01:37:44;48559.59;;;-149.77;86.17
60055;BME280;45930;53.514;55.904;2023-05-12T01:38:45;48551.66;;;-149.77;86.11
60055;BME280;45930;53.514;55.904;2023-05-12T01:39:46;48561.56;;;-149.77;86.49
60055;BME280;45930;53.514;55.904;2023-05-12T01:40:47;48573.44;;;-149.77;86.70
60055;BME280;45930;53.514;55.904;2023-05-12T01:41:48;48537.78;;;-149.77;86.39
60055;BME280;45930;53.514;55.904;2023-05-12T01:42:48;48535.81;;;-149.77;86.60
60055;BME280;45930;53.514;55.904;2023-05-12T01:43:49;48533.84;;;-149.77;86.04
60055;BME280;45930;53.514;55.904;2023-05-12T01:44:50;48525.91;;;-149.77;84.81
60055;BME280;45930;53.514;55.904;2023-05-12T01:45:51;48531.84;;;-149.77;85.44
60055;BME280;45930;53.514;55.904;2023-05-12T01:46:51;48525.91;;;-149.77;85.05
60055;BME280;45930;53.514;55.904;2023-05-12T01:47:52;48531.84;;;-149.77;85.73
60055;BME280;45930;53.514;55.904;2023-05-12T01:48:53;48541.75;;;-149.77;86.13
60055;BME280;45930;53.514;55.904;2023-05-12T01:49:54;48541.75;;;-149.77;85.98
60055;BME280;45930;53.514;55.904;2023-05-12T01:50:54;48514.03;;;-149.77;85.92
60055;BME280;45930;53.514;55.904;2023-05-12T01:51:55;48533.84;;;-149.77;85.06
60055;BME280;45930;53.514;55.904;2023-05-12T01:52:56;48512.06;;;-149.77;84.52
60055;BME280;45930;53.514;55.904;2023-05-12T01:53:57;48553.63;;;-149.77;84.18
60055;BME280;45930;53.514;55.904;2023-05-12T01:54:57;48508.09;;;-149.77;83.95
60055;BME280;45930;53.514;55.904;2023-05-12T01:55:58;48510.06;;;-149.77;83.58
60055;BME280;45930;53.514;55.904;2023-05-12T01:56:59;48514.03;;;-149.77;83.13
60055;BME280;45930;53.514;55.904;2023-05-12T01:58:00;48514.03;;;-149.77;82.85
60055;BME280;45930;53.514;55.904;2023-05-12T01:59:01;48496.22;;;-149.77;83.25
60055;BME280;45930;53.514;55.904;2023-05-12T02:00:01;48518.00;;;-149.77;82.70
60055;BME280;45930;53.514;55.904;2023-05-12T02:01:05;48521.94;;;-149.77;82.07
60055;BME280;45930;53.514;55.904;2023-05-12T02:02:05;48518.00;;;-149.77;81.93
60055;BME280;45930;53.514;55.904;2023-05-12T02:03:06;48508.09;;;-149.77;81.78
60055;BME280;45930;53.514;55.904;2023-05-12T02:04:07;48504.13;;;-149.77;81.25
60055;BME280;45930;53.514;55.904;2023-05-12T02:05:08;48531.84;;;-149.77;81.27
60055;BME280;45930;53.514;55.904;2023-05-12T02:06:09;48516.00;;;-149.77;80.62
60055;BME280;45930;53.514;55.904;2023-05-12T02:07:10;48531.84;;;-149.77;80.45
60055;BME280;45930;53.514;55.904;2023-05-12T02:08:10;48521.94;;;-149.77;79.75
60055;BME280;45930;53.514;55.904;2023-05-12T02:09:11;48541.75;;;-149.77;79.73
60055;BME280;45930;53.514;55.904;2023-05-12T02:10:12;48521.94;;;-149.77;79.50
60055;BME280;45930;53.514;55.904;2023-05-12T02:11:14;48521.94;;;-149.77;77.41
60055;BME280;45930;53.514;55.904;2023-05-12T02:12:15;48541.75;;;-149.77;77.57
60055;BME280;45930;53.514;55.904;2023-05-12T02:13:16;48531.84;;;-149.77;76.96
60055;BME280;45930;53.514;55.904;2023-05-12T02:14:16;48523.94;;;-149.77;77.30
60055;BME280;45930;53.514;55.904;2023-05-12T02:15:17;48533.84;;;-149.77;77.54
60055;BME280;45930;53.514;55.904;2023-05-12T02:16:18;48555.63;;;-149.77;77.18
60055;BME280;45930;53.514;55.904;2023-05-12T02:17:19;48545.72;;;-149.77;77.84
60055;BME280;45930;53.514;55.904;2023-05-12T02:18:20;48541.75;;;-149.77;78.70
60055;BME280;45930;53.514;55.904;2023-05-12T02:19:21;48519.97;;;-149.77;78.90
60055;BME280;45930;53.514;55.904;2023-05-12T02:20:21;48565.53;;;-149.77;77.81
60055;BME280;45930;53.514;55.904;2023-05-12T02:21:22;48571.47;;;-149.77;78.43
60055;BME280;45930;53.514;55.904;2023-05-12T02:22:23;48535.81;;;-149.77;78.90
60055;BME280;45930;53.514;55.904;2023-05-12T02:23:24;48516.00;;;-149.77;78.75
60055;BME280;45930;53.514;55.904;2023-05-12T02:24:24;48545.72;;;-149.77;79.02
60055;BME280;45930;53.514;55.904;2023-05-12T02:25:25;48527.91;;;-149.77;78.57
60055;BME280;45930;53.514;55.904;2023-05-12T02:26:26;48518.00;;;-149.77;79.05
60055;BME280;45930;53.514;55.904;2023-05-12T02:27:27;48519.97;;;-149.77;79.34
60055;BME280;45930;53.514;55.904;2023-05-12T02:28:27;48541.75;;;-149.77;77.99
60055;BME280;45930;53.514;55.904;2023-05-12T02:29:28;48527.91;;;-149.77;78.86
60055;BME280;45930;53.514;55.904;2023-05-12T02:30:29;48535.81;;;-149.77;79.69
60055;BME280;45930;53.514;55.904;2023-05-12T02:31:30;48525.91;;;-149.77;79.19
60055;BME280;45930;53.514;55.904;2023-05-12T02:32:30;48525.91;;;-149.77;80.41
60055;BME280;45930;53.514;55.904;2023-05-12T02:33:32;48510.06;;;-149.77;81.13
60055;BME280;45930;53.514;55.904;2023-05-12T02:34:32;48527.91;;;-149.77;81.51
60055;BME280;45930;53.514;55.904;2023-05-12T02:35:33;48525.91;;;-149.77;81.20
60055;BME280;45930;53.514;55.904;2023-05-12T02:36:34;48514.03;;;-149.77;82.87
60055;BME280;45930;53.514;55.904;2023-05-12T02:37:35;48514.03;;;-149.77;83.99
60055;BME280;45930;53.514;55.904;2023-05-12T02:38:35;48525.91;;;-149.77;82.60
60055;BME280;45930;53.514;55.904;2023-05-12T02:39:36;48518.00;;;-149.77;83.39
60055;BME280;45930;53.514;55.904;2023-05-12T02:40:37;48545.72;;;-149.77;83.40
60055;BME280;45930;53.514;55.904;2023-05-12T02:41:38;48529.88;;;-149.77;81.66
60055;BME280;45930;53.514;55.904;2023-05-12T02:42:39;48535.81;;;-149.77;81.35
60055;BME280;45930;53.514;55.904;2023-05-12T02:43:40;48521.94;;;-149.77;81.48
60055;BME280;45930;53.514;55.904;2023-05-12T02:44:41;48539.78;;;-149.77;81.78
60055;BME280;45930;53.514;55.904;2023-05-12T02:45:42;48512.06;;;-149.77;82.24
60055;BME280;45930;53.514;55.904;2023-05-12T02:46:42;48516.00;;;-149.77;81.47
60055;BME280;45930;53.514;55.904;2023-05-12T02:47:43;48510.06;;;-149.77;81.47
60055;BME280;45930;53.514;55.904;2023-05-12T02:48:44;48504.13;;;-149.77;81.92
60055;BME280;45930;53.514;55.904;2023-05-12T02:49:45;48533.84;;;-149.77;81.83
60055;BME280;45930;53.514;55.904;2023-05-12T02:50:45;48521.94;;;-149.77;81.27
60055;BME280;45930;53.514;55.904;2023-05-12T02:51:46;48514.03;;;-149.77;81.89
60055;BME280;45930;53.514;55.904;2023-05-12T02:52:49;48514.03;;;-149.77;82.50
60055;BME280;45930;53.514;55.904;2023-05-12T02:53:50;48518.00;;;-149.77;83.09
60055;BME280;45930;53.514;55.904;2023-05-12T02:54:50;48529.88;;;-149.77;83.18
60055;BME280;45930;53.514;55.904;2023-05-12T02:55:52;48527.91;;;-149.77;83.83
60055;BME280;45930;53.514;55.904;2023-05-12T02:56:52;48519.97;;;-149.77;84.84
60055;BME280;45930;53.514;55.904;2023-05-12T02:57:56;48514.03;;;-149.77;84.59
60055;BME280;45930;53.514;55.904;2023-05-12T02:58:57;48514.03;;;-149.77;83.30
60055;BME280;45930;53.514;55.904;2023-05-12T03:00:02;48508.09;;;-149.77;82.96
60055;BME280;45930;53.514;55.904;2023-05-12T03:01:06;48518.00;;;-149.77;83.25
60055;BME280;45930;53.514;55.904;2023-05-12T03:02:10;48506.09;;;-149.77;85.44
60055;BME280;45930;53.514;55.904;2023-05-12T03:03:10;48535.81;;;-149.77;86.36
60055;BME280;45930;53.514;55.904;2023-05-12T03:04:11;48506.09;;;-149.77;85.01
60055;BME280;45930;53.514;55.904;2023-05-12T03:05:12;48508.09;;;-149.77;84.87
60055;BME280;45930;53.514;55.904;2023-05-12T03:06:13;48518.00;;;-149.77;84.71
60055;BME280;45930;53.514;55.904;2023-05-12T03:07:14;48502.16;;;-149.77;84.56
60055;BME280;45930;53.514;55.904;2023-05-12T03:08:15;48504.13;;;-149.77;85.93
60055;BME280;45930;53.514;55.904;2023-05-12T03:09:16;48514.03;;;-149.77;85.49
60055;BME280;45930;53.514;55.904;2023-05-12T03:10:17;48523.94;;;-149.77;87.22
60055;BME280;45930;53.514;55.904;2023-05-12T03:11:18;48514.03;;;-149.77;88.20
60055;BME280;45930;53.514;55.904;2023-05-12T03:12:18;48521.94;;;-149.77;87.25
60055;BME280;45930;53.514;55.904;2023-05-12T03:13:19;48494.22;;;-149.77;85.87
60055;BME280;45930;53.514;55.904;2023-05-12T03:14:20;48529.88;;;-149.77;86.58
60055;BME280;45930;53.514;55.904;2023-05-12T03:15:21;48533.84;;;-149.77;86.64
60055;BME280;45930;53.514;55.904;2023-05-12T03:16:21;48496.22;;;-149.77;85.73
60055;BME280;45930;53.514;55.904;2023-05-12T03:17:22;48519.97;;;-149.77;83.98
60055;BME280;45930;53.514;55.904;2023-05-12T03:18:23;48492.25;;;-149.77;84.38
60055;BME280;45930;53.514;55.904;2023-05-12T03:19:24;48533.84;;;-149.77;85.46
60055;BME280;45930;53.514;55.904;2023-05-12T03:20:25;48502.16;;;-149.77;87.20
60055;BME280;45930;53.514;55.904;2023-05-12T03:21:25;48527.91;;;-149.77;88.36
60055;BME280;45930;53.514;55.904;2023-05-12T03:22:28;48518.00;;;-149.77;88.63
60055;BME280;45930;53.514;55.904;2023-05-12T03:23:28;48510.06;;;-149.77;87.52
60055;BME280;45930;53.514;55.904;2023-05-12T03:24:30;48512.06;;;-149.77;86.74
60055;BME280;45930;53.514;55.904;2023-05-12T03:25:31;48486.31;;;-149.77;87.05
60055;BME280;45930;53.514;55.904;2023-05-12T03:26:34;48529.88;;;-149.77;86.96
60055;BME280;45930;53.514;55.904;2023-05-12T03:27:35;48500.16;;;-149.77;87.18
60055;BME280;45930;53.514;55.904;2023-05-12T03:28:36;48500.16;;;-149.77;85.78
60055;BME280;45930;53.514;55.904;2023-05-12T03:29:37;48494.22;;;-149.77;85.95
60055;BME280;45930;53.514;55.904;2023-05-12T03:30:37;48486.31;;;-149.77;86.81
60055;BME280;45930;53.514;55.904;2023-05-12T03:31:38;48506.09;;;-149.77;85.30
60055;BME280;45930;53.514;55.904;2023-05-12T03:32:39;48508.09;;;-149.77;85.81
60055;BME280;45930;53.514;55.904;2023-05-12T03:33:40;48480.38;;;-149.77;84.55
60055;BME280;45930;53.514;55.904;2023-05-12T03:34:41;48506.09;;;-149.77;86.09
60055;BME280;45930;53.514;55.904;2023-05-12T03:35:42;48492.25;;;-149.77;83.16
60055;BME280;45930;53.514;55.904;2023-05-12T03:36:43;48488.28;;;-149.77;84.45
60055;BME280;45930;53.514;55.904;2023-05-12T03:37:44;48492.25;;;-149.77;84.23
60055;BME280;45930;53.514;55.904;2023-05-12T03:38:45;48462.53;;;-149.77;81.61
60055;BME280;45930;53.514;55.904;2023-05-12T03:39:46;48486.31;;;-149.77;81.39
60055;BME280;45930;53.514;55.904;2023-05-12T03:40:48;48516.00;;;-149.77;80.40
60055;BME280;45930;53.514;55.904;2023-05-12T03:41:52;48488.28;;;-149.77;82.61
60055;BME280;45930;53.514;55.904;2023-05-12T03:42:52;48498.19;;;-149.77;81.92
60055;BME280;45930;53.514;55.904;2023-05-12T03:43:53;48490.25;;;-149.77;83.96
60055;BME280;45930;53.514;55.904;2023-05-12T03:44:54;48498.19;;;-149.77;83.96
60055;BME280;45930;53.514;55.904;2023-05-12T03:45:55;48482.34;;;-149.77;84.89
60055;BME280;45930;53.514;55.904;2023-05-12T03:46:56;48464.53;;;-149.77;82.39
60055;BME280;45930;53.514;55.904;2023-05-12T03:47:57;48464.53;;;-149.77;83.68
60055;BME280;45930;53.514;55.904;2023-05-12T03:48:57;48472.44;;;-149.77;84.10
60055;BME280;45930;53.514;55.904;2023-05-12T03:49:58;48474.41;;;-149.77;81.06
60055;BME280;45930;53.514;55.904;2023-05-12T03:50:59;48494.22;;;-149.77;78.68
60055;BME280;45930;53.514;55.904;2023-05-12T03:52:00;48490.25;;;-149.77;78.64
60055;BME280;45930;53.514;55.904;2023-05-12T03:53:01;48480.38;;;-149.77;77.86
60055;BME280;45930;53.514;55.904;2023-05-12T03:54:01;48521.94;;;-149.77;78.99
60055;BME280;45930;53.514;55.904;2023-05-12T03:55:04;48518.00;;;-149.77;79.11
60055;BME280;45930;53.514;55.904;2023-05-12T03:56:05;48464.53;;;-149.77;80.13
60055;BME280;45930;53.514;55.904;2023-05-12T03:57:06;48494.22;;;-149.77;78.15
60055;BME280;45930;53.514;55.904;2023-05-12T03:58:07;48506.09;;;-149.77;78.87
60055;BME280;45930;53.514;55.904;2023-05-12T03:59:08;48518.00;;;-149.77;77.38
60055;BME280;45930;53.514;55.904;2023-05-12T04:00:11;48498.19;;;-149.77;77.98
60055;BME280;45930;53.514;55.904;2023-05-12T04:01:12;48478.38;;;-149.77;79.15
60055;BME280;45930;53.514;55.904;2023-05-12T04:02:13;48510.06;;;-149.77;79.10
60055;BME280;45930;53.514;55.904;2023-05-12T04:03:14;48500.16;;;-149.77;77.18
60055;BME280;45930;53.514;55.904;2023-05-12T04:04:15;48506.09;;;-149.77;75.42
60055;BME280;45930;53.514;55.904;2023-05-12T04:05:16;48506.09;;;-149.77;75.17
60055;BME280;45930;53.514;55.904;2023-05-12T04:06:16;48545.72;;;-149.77;74.12
60055;BME280;45930;53.514;55.904;2023-05-12T04:07:17;48521.94;;;-149.77;73.76
60055;BME280;45930;53.514;55.904;2023-05-12T04:08:18;48519.97;;;-149.77;74.07
60055;BME280;45930;53.514;55.904;2023-05-12T04:09:18;48516.00;;;-149.77;72.83
60055;BME280;45930;53.514;55.904;2023-05-12T04:10:20;48529.88;;;-149.77;74.12
60055;BME280;45930;53.514;55.904;2023-05-12T04:11:21;48521.94;;;-149.77;74.58
60055;BME280;45930;53.514;55.904;2023-05-12T04:12:23;48529.88;;;-149.77;73.64
60055;BME280;45930;53.514;55.904;2023-05-12T04:13:24;48555.63;;;-149.77;74.29
60055;BME280;45930;53.514;55.904;2023-05-12T04:14:25;48502.16;;;-149.77;76.33
60055;BME280;45930;53.514;55.904;2023-05-12T04:15:26;48518.00;;;-149.77;77.19
60055;BME280;45930;53.514;55.904;2023-05-12T04:16:27;48516.00;;;-149.77;73.54
60055;BME280;45930;53.514;55.904;2023-05-12T04:17:27;48514.03;;;-149.77;75.24
60055;BME280;45930;53.514;55.904;2023-05-12T04:18:31;48504.13;;;-149.77;76.19
60055;BME280;45930;53.514;55.904;2023-05-12T04:19:32;48581.38;;;-149.77;71.77
60055;BME280;45930;53.514;55.904;2023-05-12T04:20:36;48521.94;;;-149.77;73.20
60055;BME280;45930;53.514;55.904;2023-05-12T04:21:37;48537.78;;;-149.77;74.09
60055;BME280;45930;53.514;55.904;2023-05-12T04:22:38;48567.50;;;-149.77;72.62
60055;BME280;45930;53.514;55.904;2023-05-12T04:23:39;48561.56;;;-149.77;74.16
60055;BME280;45930;53.514;55.904;2023-05-12T04:24:40;48553.63;;;-149.77;73.56
60055;BME280;45930;53.514;55.904;2023-05-12T04:25:41;48549.69;;;-149.77;73.49
60055;BME280;45930;53.514;55.904;2023-05-12T04:26:42;48573.44;;;-149.77;73.50
60055;BME280;45930;53.514;55.904;2023-05-12T04:27:43;48541.75;;;-149.77;72.88
60055;BME280;45930;53.514;55.904;2023-05-12T04:28:43;48537.78;;;-149.77;75.40
60055;BME280;45930;53.514;55.904;2023-05-12T04:29:44;48521.94;;;-149.77;76.26
60055;BME280;45930;53.514;55.904;2023-05-12T04:30:45;48523.94;;;-149.77;76.66
60055;BME280;45930;53.514;55.904;2023-05-12T04:31:46;48583.34;;;-149.77;72.88
60055;BME280;45930;53.514;55.904;2023-05-12T04:32:46;48567.50;;;-149.77;72.50
60055;BME280;45930;53.514;55.904;2023-05-12T04:33:48;48539.78;;;-149.77;73.60
60055;BME280;45930;53.514;55.904;2023-05-12T04:34:49;48575.41;;;-149.77;73.18
60055;BME280;45930;53.514;55.904;2023-05-12T04:35:54;48543.75;;;-149.77;72.93
60055;BME280;45930;53.514;55.904;2023-05-12T04:36:55;48585.31;;;-149.77;73.58
60055;BME280;45930;53.514;55.904;2023-05-12T04:37:56;48567.50;;;-149.77;72.44
60055;BME280;45930;53.514;55.904;2023-05-12T04:38:57;48579.38;;;-149.77;72.78
60055;BME280;45930;53.514;55.904;2023-05-12T04:39:58;48587.31;;;-149.77;72.96
60055;BME280;45930;53.514;55.904;2023-05-12T04:40:59;48537.78;;;-149.77;72.83
60055;BME280;45930;53.514;55.904;2023-05-12T04:42:00;48579.38;;;-149.77;72.57
60055;BME280;45930;53.514;55.904;2023-05-12T04:43:01;48557.59;;;-149.77;72.68
60055;BME280;45930;53.514;55.904;2023-05-12T04:44:02;48579.38;;;-149.77;71.86
60055;BME280;45930;53.514;55.904;2023-05-12T04:45:03;48573.44;;;-149.77;71.40
60055;BME280;45930;53.514;55.904;2023-05-12T04:46:04;48591.28;;;-149.77;71.30
60055;BME280;45930;53.514;55.904;2023-05-12T04:47:05;48624.94;;;-149.77;70.15
60055;BME280;45930;53.514;55.904;2023-05-12T04:48:06;48634.84;;;-149.77;68.12
60055;BME280;45930;53.514;55.904;2023-05-12T04:49:07;48656.63;;;-149.77;68.98
60055;BME280;45930;53.514;55.904;2023-05-12T04:50:08;48636.81;;;-149.77;70.74
60055;BME280;45930;53.514;55.904;2023-05-12T04:51:10;48597.22;;;-149.77;71.93
60055;BME280;45930;53.514;55.904;2023-05-12T04:52:10;48603.16;;;-149.77;72.13
60055;BME280;45930;53.514;55.904;2023-05-12T04:53:11;48624.94;;;-149.77;71.82
60055;BME280;45930;53.514;55.904;2023-05-12T04:54:12;48575.41;;;-149.77;72.94
60055;BME280;45930;53.514;55.904;2023-05-12T04:55:13;48567.50;;;-149.77;72.98
60055;BME280;45930;53.514;55.904;2023-05-12T04:56:14;48575.41;;;-149.77;73.33
60055;BME280;45930;53.514;55.904;2023-05-12T04:57:14;48593.25;;;-149.77;73.69
60055;BME280;45930;53.514;55.904;2023-05-12T04:58:15;48581.38;;;-149.77;73.86
60055;BME280;45930;53.514;55.904;2023-05-12T04:59:16;48547.69;;;-149.77;74.29
60055;BME280;45930;53.514;55.904;2023-05-12T05:00:17;48563.53;;;-149.77;74.17
60055;BME280;45930;53.514;55.904;2023-05-12T05:01:18;48567.50;;;-149.77;74.39
60055;BME280;45930;53.514;55.904;2023-05-12T05:02:18;48551.66;;;-149.77;75.24
60055;BME280;45930;53.514;55.904;2023-05-12T05:03:19;48518.00;;;-149.77;75.92
60055;BME280;45930;53.514;55.904;2023-05-12T05:04:20;48518.00;;;-149.77;76.39
60055;BME280;45930;53.514;55.904;2023-05-12T05:05:21;48525.91;;;-149.77;76.53
60055;BME280;45930;53.514;55.904;2023-05-12T05:06:22;48529.88;;;-149.77;77.30
60055;BME280;45930;53.514;55.904;2023-05-12T05:07:22;48508.09;;;-149.77;77.42
60055;BME280;45930;53.514;55.904;2023-05-12T05:08:23;48518.00;;;-149.77;77.20
60055;BME280;45930;53.514;55.904;2023-05-12T05:09:24;48510.06;;;-149.77;76.23
60055;BME280;45930;53.514;55.904;2023-05-12T05:10:25;48553.63;;;-149.77;75.39
60055;BME280;45930;53.514;55.904;2023-05-12T05:11:25;48535.81;;;-149.77;74.93